createdAt,value
2019-04-11T00:00:33.940Z,2.60
2019-04-11T00:01:33.858Z,2.60
2019-04-11T00:02:03.344Z,2.60
2019-04-11T00:02:41.027Z,2.60
2019-04-11T00:03:21.884Z,2.60
2019-04-11T00:03:59.905Z,2.60
2019-04-11T00:04:38.046Z,2.60
2019-04-11T00:05:15.478Z,2.60
2019-04-11T00:05:53.608Z,2.60
2019-04-11T00:06:31.808Z,2.60
2019-04-11T00:07:10.014Z,2.60
2019-04-11T00:07:48.782Z,2.60
2019-04-11T00:08:27.950Z,2.50
2019-04-11T00:09:08.942Z,2.60
2019-04-11T00:09:47.790Z,2.50
2019-04-11T00:10:26.542Z,2.50
2019-04-11T00:11:04.374Z,2.50
2019-04-11T00:11:42.202Z,2.50
2019-04-11T00:12:22.091Z,2.50
2019-04-11T00:13:01.090Z,2.50
2019-04-11T00:13:39.153Z,2.50
2019-04-11T00:14:17.869Z,2.50
2019-04-11T00:14:56.060Z,2.50
2019-04-11T00:15:35.549Z,2.50
2019-04-11T00:16:13.388Z,2.50
2019-04-11T00:16:50.930Z,2.50
2019-04-11T00:17:30.039Z,2.50
2019-04-11T00:18:08.170Z,2.50
2019-04-11T00:18:47.154Z,2.40
2019-04-11T00:19:24.296Z,2.40
2019-04-11T00:20:02.212Z,2.40
2019-04-11T00:20:40.294Z,2.40
2019-04-11T00:21:17.900Z,2.40
2019-04-11T00:21:55.382Z,2.40
2019-04-11T00:22:33.394Z,2.40
2019-04-11T00:23:12.201Z,2.40
2019-04-11T00:23:50.346Z,2.40
2019-04-11T00:24:29.102Z,2.40
2019-04-11T00:25:07.361Z,2.40
2019-04-11T00:25:44.506Z,2.40
2019-04-11T00:26:22.215Z,2.40
2019-04-11T00:27:00.382Z,2.40
2019-04-11T00:27:39.243Z,2.40
2019-04-11T00:28:17.403Z,2.50
2019-04-11T00:28:56.758Z,2.50
2019-04-11T00:29:34.558Z,2.50
2019-04-11T00:30:15.595Z,2.50
2019-04-11T00:30:54.567Z,2.40
2019-04-11T00:31:33.755Z,2.40
2019-04-11T00:32:12.313Z,2.40
2019-04-11T00:32:50.130Z,2.40
2019-04-11T00:33:28.276Z,2.40
2019-04-11T00:34:06.846Z,2.40
2019-04-11T00:34:44.894Z,2.40
2019-04-11T00:35:23.810Z,2.40
2019-04-11T00:36:02.566Z,2.50
2019-04-11T00:36:40.810Z,2.50
2019-04-11T00:37:19.056Z,2.50
2019-04-11T00:37:57.164Z,2.50
2019-04-11T00:38:36.151Z,2.50
2019-04-11T00:39:15.256Z,2.50
2019-04-11T00:39:54.076Z,2.50
2019-04-11T00:40:31.936Z,2.50
2019-04-11T00:41:10.038Z,2.50
2019-04-11T00:41:48.252Z,2.50
2019-04-11T00:42:26.285Z,2.50
2019-04-11T00:43:05.223Z,2.50
2019-04-11T00:43:43.935Z,2.50
2019-04-11T00:44:21.604Z,2.50
2019-04-11T00:45:07.909Z,2.50
2019-04-11T00:45:45.628Z,2.50
2019-04-11T00:46:24.478Z,2.50
2019-04-11T00:47:02.681Z,2.50
2019-04-11T00:47:43.070Z,2.50
2019-04-11T00:48:21.791Z,2.50
2019-04-11T00:49:10.272Z,2.50
2019-04-11T00:49:48.467Z,2.50
2019-04-11T00:50:27.551Z,2.50
2019-04-11T00:51:07.708Z,2.50
2019-04-11T00:51:46.432Z,2.50
2019-04-11T00:52:23.552Z,2.50
2019-04-11T00:53:02.032Z,2.50
2019-04-11T00:53:40.351Z,2.50
2019-04-11T00:54:18.523Z,2.50
2019-04-11T00:54:59.529Z,2.50
2019-04-11T00:55:37.659Z,2.50
2019-04-11T00:56:18.402Z,2.60
2019-04-11T00:56:56.678Z,2.60
2019-04-11T00:57:33.984Z,2.60
2019-04-11T00:58:11.856Z,2.60
2019-04-11T00:58:49.921Z,2.60
2019-04-11T00:59:28.238Z,2.60
2019-04-11T01:00:07.387Z,2.60
2019-04-11T01:00:45.524Z,2.60
2019-04-11T01:01:23.963Z,2.60
2019-04-11T01:02:01.610Z,2.60
2019-04-11T01:02:41.512Z,2.60
2019-04-11T01:03:18.552Z,2.60
2019-04-11T01:03:56.643Z,2.60
2019-04-11T01:04:34.952Z,2.60
2019-04-11T01:05:13.120Z,2.60
2019-04-11T01:05:54.170Z,2.60
2019-04-11T01:06:34.240Z,2.60
2019-04-11T01:07:14.411Z,2.60
2019-04-11T01:07:53.391Z,2.60
2019-04-11T01:08:31.505Z,2.60
2019-04-11T01:09:09.995Z,2.70
2019-04-11T01:09:49.062Z,2.70
2019-04-11T01:10:27.438Z,2.70
2019-04-11T01:11:09.815Z,2.70
2019-04-11T01:11:47.922Z,2.70
2019-04-11T01:12:26.749Z,2.70
2019-04-11T01:13:05.084Z,2.70
2019-04-11T01:13:49.965Z,2.70
2019-04-11T01:14:22.363Z,2.70
2019-04-11T01:15:00.096Z,2.70
2019-04-11T01:15:40.803Z,2.70
2019-04-11T01:16:40.854Z,2.70
2019-04-11T01:17:21.119Z,2.70
2019-04-11T01:17:58.634Z,2.70
2019-04-11T01:18:36.778Z,2.80
2019-04-11T01:19:14.324Z,2.70
2019-04-11T01:19:53.216Z,2.70
2019-04-11T01:20:31.409Z,2.70
2019-04-11T01:21:08.789Z,2.80
2019-04-11T01:21:47.088Z,2.80
2019-04-11T01:22:24.446Z,2.80
2019-04-11T01:23:02.748Z,2.80
2019-04-11T01:23:40.559Z,2.80
2019-04-11T01:24:20.176Z,2.80
2019-04-11T01:24:58.243Z,2.80
2019-04-11T01:25:36.859Z,2.80
2019-04-11T01:26:14.693Z,2.80
2019-04-11T01:26:53.772Z,2.80
2019-04-11T01:27:32.123Z,2.80
2019-04-11T01:28:10.216Z,2.80
2019-04-11T01:28:49.073Z,2.80
2019-04-11T01:29:27.301Z,2.80
2019-04-11T01:30:06.309Z,2.80
2019-04-11T01:30:51.685Z,2.80
2019-04-11T01:31:30.500Z,2.80
2019-04-11T01:32:10.222Z,2.80
2019-04-11T01:32:48.656Z,2.80
2019-04-11T01:33:27.449Z,2.80
2019-04-11T01:34:04.681Z,2.80
2019-04-11T01:34:42.932Z,2.80
2019-04-11T01:35:21.355Z,2.80
2019-04-11T01:35:59.164Z,2.80
2019-04-11T01:36:37.439Z,2.80
2019-04-11T01:37:15.600Z,2.80
2019-04-11T01:37:52.976Z,2.80
2019-04-11T01:38:32.453Z,2.80
2019-04-11T01:39:23.936Z,2.80
2019-04-11T01:40:02.744Z,2.80
2019-04-11T01:40:40.532Z,2.80
2019-04-11T01:41:18.407Z,2.80
2019-04-11T01:41:56.394Z,2.80
2019-04-11T01:42:35.593Z,2.80
2019-04-11T01:43:13.534Z,2.80
2019-04-11T01:43:56.264Z,2.80
2019-04-11T01:44:30.970Z,2.80
2019-04-11T01:45:09.559Z,2.80
2019-04-11T01:45:47.588Z,2.80
2019-04-11T01:46:26.350Z,2.80
2019-04-11T01:47:06.701Z,2.80
2019-04-11T01:48:01.626Z,2.80
2019-04-11T01:48:46.349Z,2.80
2019-04-11T01:49:24.214Z,2.80
2019-04-11T01:50:03.070Z,2.80
2019-04-11T01:50:41.192Z,2.80
2019-04-11T01:51:19.098Z,2.80
2019-04-11T01:51:58.184Z,2.80
2019-04-11T01:52:36.272Z,2.80
2019-04-11T01:53:15.116Z,2.80
2019-04-11T01:53:52.928Z,2.80
2019-04-11T01:54:32.089Z,2.80
2019-04-11T01:55:10.286Z,2.80
2019-04-11T01:55:48.371Z,2.80
2019-04-11T01:56:27.142Z,2.80
2019-04-11T01:57:05.481Z,2.80
2019-04-11T01:57:44.610Z,2.80
2019-04-11T01:58:22.508Z,2.80
2019-04-11T01:59:02.784Z,2.80
2019-04-11T01:59:41.760Z,2.80
2019-04-11T02:00:40.136Z,2.80
2019-04-11T02:01:25.116Z,2.80
2019-04-11T02:02:26.589Z,2.80
2019-04-11T02:03:04.066Z,2.80
2019-04-11T02:04:00.994Z,2.80
2019-04-11T02:04:46.065Z,2.80
2019-04-11T02:05:27.141Z,2.80
2019-04-11T02:06:05.473Z,2.80
2019-04-11T02:06:43.454Z,2.70
2019-04-11T02:07:20.889Z,2.80
2019-04-11T02:07:59.064Z,2.80
2019-04-11T02:08:36.081Z,2.80
2019-04-11T02:09:15.899Z,2.80
2019-04-11T02:09:54.642Z,2.80
2019-04-11T02:10:32.979Z,2.80
2019-04-11T02:11:11.025Z,2.80
2019-04-11T02:11:49.874Z,2.80
2019-04-11T02:12:28.946Z,2.80
2019-04-11T02:13:07.650Z,2.80
2019-04-11T02:13:48.182Z,2.80
2019-04-11T02:14:26.048Z,2.80
2019-04-11T02:15:04.255Z,2.80
2019-04-11T02:15:42.050Z,2.80
2019-04-11T02:16:19.072Z,2.80
2019-04-11T02:16:57.460Z,2.80
2019-04-11T02:17:37.543Z,2.80
2019-04-11T02:18:17.936Z,2.80
2019-04-11T02:18:56.182Z,2.80
2019-04-11T02:19:34.367Z,2.80
2019-04-11T02:20:12.898Z,2.80
2019-04-11T02:20:51.382Z,2.80
2019-04-11T02:21:31.781Z,2.80
2019-04-11T02:22:32.643Z,2.80
2019-04-11T02:23:20.135Z,2.80
2019-04-11T02:24:19.522Z,2.90
2019-04-11T02:25:03.821Z,2.90
2019-04-11T02:26:00.924Z,2.90
2019-04-11T02:26:38.629Z,2.90
2019-04-11T02:27:26.011Z,2.90
2019-04-11T02:28:04.640Z,2.90
2019-04-11T02:28:42.444Z,2.90
2019-04-11T02:29:19.905Z,2.90
2019-04-11T02:29:58.585Z,2.90
2019-04-11T02:30:39.374Z,2.90
2019-04-11T02:31:19.577Z,2.90
2019-04-11T02:31:59.168Z,2.90
2019-04-11T02:32:37.065Z,2.90
2019-04-11T02:33:16.395Z,2.90
2019-04-11T02:33:55.233Z,2.90
2019-04-11T02:34:36.993Z,2.90
2019-04-11T02:35:15.462Z,2.90
2019-04-11T02:35:54.219Z,2.90
2019-04-11T02:36:34.219Z,2.90
2019-04-11T02:37:13.463Z,2.90
2019-04-11T02:37:52.077Z,2.90
2019-04-11T02:38:32.534Z,2.90
2019-04-11T02:39:17.183Z,2.90
2019-04-11T02:39:51.641Z,2.90
2019-04-11T02:40:30.627Z,2.90
2019-04-11T02:41:10.562Z,2.90
2019-04-11T02:41:50.615Z,2.90
2019-04-11T02:42:30.664Z,2.90
2019-04-11T02:43:09.931Z,2.90
2019-04-11T02:43:49.480Z,2.90
2019-04-11T02:44:39.895Z,2.90
2019-04-11T02:45:21.851Z,2.90
2019-04-11T02:45:58.072Z,2.90
2019-04-11T02:46:35.280Z,3.00
2019-04-11T02:47:11.494Z,3.00
2019-04-11T02:47:48.256Z,3.00
2019-04-11T02:48:26.713Z,3.00
2019-04-11T02:49:08.115Z,3.00
2019-04-11T02:49:47.717Z,3.00
2019-04-11T02:50:26.725Z,3.00
2019-04-11T02:51:07.493Z,3.00
2019-04-11T02:51:45.151Z,3.00
2019-04-11T02:52:25.131Z,3.00
2019-04-11T02:53:03.049Z,3.00
2019-04-11T02:53:41.638Z,3.00
2019-04-11T02:54:21.779Z,3.00
2019-04-11T02:55:00.781Z,3.00
2019-04-11T02:55:38.498Z,3.00
2019-04-11T02:56:17.386Z,3.00
2019-04-11T02:56:57.531Z,3.00
2019-04-11T02:57:36.239Z,3.00
2019-04-11T02:58:14.733Z,3.00
2019-04-11T02:58:54.587Z,3.00
2019-04-11T02:59:34.375Z,3.00
2019-04-11T03:00:13.162Z,3.10
2019-04-11T03:00:53.705Z,3.10
2019-04-11T03:01:31.950Z,3.10
2019-04-11T03:02:13.098Z,3.10
2019-04-11T03:02:52.499Z,3.10
2019-04-11T03:03:29.820Z,3.10
2019-04-11T03:04:08.391Z,3.10
2019-04-11T03:04:47.943Z,3.10
2019-04-11T03:05:26.876Z,3.10
2019-04-11T03:06:06.904Z,3.10
2019-04-11T03:06:45.912Z,3.10
2019-04-11T03:07:22.830Z,3.10
2019-04-11T03:08:06.828Z,3.10
2019-04-11T03:08:43.579Z,3.10
2019-04-11T03:09:23.994Z,3.10
2019-04-11T03:10:03.128Z,3.10
2019-04-11T03:10:42.858Z,3.10
2019-04-11T03:11:23.645Z,3.10
2019-04-11T03:12:00.450Z,3.10
2019-04-11T03:12:40.383Z,3.20
2019-04-11T03:13:19.025Z,3.10
2019-04-11T03:13:58.314Z,3.20
2019-04-11T03:15:00.765Z,3.20
2019-04-11T03:15:32.067Z,3.20
2019-04-11T03:16:11.412Z,3.20
2019-04-11T03:16:49.279Z,3.20
2019-04-11T03:17:23.118Z,3.20
2019-04-11T03:18:01.785Z,3.20
2019-04-11T03:18:57.345Z,3.20
2019-04-11T03:19:30.093Z,3.20
2019-04-11T03:20:08.904Z,3.20
2019-04-11T03:20:45.941Z,3.20
2019-04-11T03:21:20.383Z,3.20
2019-04-11T03:21:56.581Z,3.20
2019-04-11T03:22:35.019Z,3.20
2019-04-11T03:23:15.065Z,3.20
2019-04-11T03:23:51.917Z,3.20
2019-04-11T03:24:31.582Z,3.30
2019-04-11T03:25:09.496Z,3.20
2019-04-11T03:25:47.034Z,3.30
2019-04-11T03:26:27.162Z,3.30
2019-04-11T03:27:07.196Z,3.30
2019-04-11T03:27:45.231Z,3.30
2019-04-11T03:28:27.531Z,3.30
2019-04-11T03:29:04.106Z,3.30
2019-04-11T03:29:43.110Z,3.30
2019-04-11T03:30:34.844Z,3.30
2019-04-11T03:31:33.089Z,3.30
2019-04-11T03:32:17.527Z,3.30
2019-04-11T03:33:57.915Z,3.30
2019-04-11T03:37:47.903Z,3.30
2019-04-11T03:38:03.721Z,3.30
2019-04-11T03:38:46.492Z,3.30
2019-04-11T03:39:28.945Z,3.30
2019-04-11T03:40:07.932Z,3.30
2019-04-11T03:40:46.996Z,3.30
2019-04-11T03:41:24.964Z,3.30
2019-04-11T03:42:04.000Z,3.30
2019-04-11T03:42:41.616Z,3.30
2019-04-11T03:43:15.107Z,3.30
2019-04-11T03:43:53.916Z,3.30
2019-04-11T03:44:30.699Z,3.30
2019-04-11T03:45:28.454Z,3.30
2019-04-11T03:46:01.403Z,3.30
2019-04-11T03:46:37.666Z,3.20
2019-04-11T03:47:16.760Z,3.20
2019-04-11T03:47:57.644Z,3.20
2019-04-11T03:48:32.948Z,3.20
2019-04-11T03:49:14.780Z,3.20
2019-04-11T03:49:51.011Z,3.20
2019-04-11T03:50:27.583Z,3.20
2019-04-11T03:51:03.931Z,3.10
2019-04-11T03:51:43.638Z,3.10
2019-04-11T03:52:21.478Z,3.10
2019-04-11T03:53:01.483Z,3.10
2019-04-11T03:53:40.953Z,3.10
2019-04-11T03:54:18.757Z,3.10
2019-04-11T03:54:58.887Z,3.10
2019-04-11T03:55:37.005Z,3.00
2019-04-11T03:56:16.253Z,3.10
2019-04-11T03:56:57.259Z,3.00
2019-04-11T03:57:35.421Z,3.00
2019-04-11T03:58:13.707Z,3.00
2019-04-11T03:58:53.499Z,3.00
2019-04-11T03:59:33.602Z,3.00
2019-04-11T04:00:13.083Z,3.00
2019-04-11T04:00:54.683Z,3.10
2019-04-11T04:01:31.935Z,3.10
2019-04-11T04:02:13.037Z,3.00
2019-04-11T04:02:50.571Z,3.00
2019-04-11T04:03:29.650Z,3.00
2019-04-11T04:04:09.131Z,3.10
2019-04-11T04:04:49.775Z,3.10
2019-04-11T04:05:32.228Z,3.10
2019-04-11T04:06:09.011Z,3.10
2019-04-11T04:06:47.887Z,3.10
2019-04-11T04:07:46.542Z,3.10
2019-04-11T04:08:24.730Z,3.10
2019-04-11T04:09:06.620Z,3.10
2019-04-11T04:09:46.115Z,3.10
2019-04-11T04:10:25.773Z,3.10
2019-04-11T04:11:22.178Z,3.10
2019-04-11T04:11:59.673Z,3.10
2019-04-11T04:12:40.321Z,3.20
2019-04-11T04:13:20.718Z,3.20
2019-04-11T04:14:16.842Z,3.20
2019-04-11T04:15:23.762Z,3.20
2019-04-11T04:16:19.841Z,3.20
2019-04-11T04:17:11.424Z,3.20
2019-04-11T04:17:57.295Z,3.20
2019-04-11T04:18:45.677Z,3.20
2019-04-11T04:19:37.601Z,3.20
2019-04-11T04:20:37.034Z,3.20
2019-04-11T04:21:31.155Z,3.20
2019-04-11T04:22:16.063Z,3.20
2019-04-11T04:23:03.190Z,3.20
2019-04-11T04:23:45.851Z,3.20
2019-04-11T04:24:32.099Z,3.20
2019-04-11T04:25:08.414Z,3.30
2019-04-11T04:25:47.315Z,3.20
2019-04-11T04:26:26.918Z,3.30
2019-04-11T04:27:07.622Z,3.30
2019-04-11T04:27:46.768Z,3.30
2019-04-11T04:28:25.097Z,3.30
2019-04-11T04:29:04.466Z,3.30
2019-04-11T04:29:46.777Z,3.30
2019-04-11T04:30:22.331Z,3.30
2019-04-11T04:31:00.282Z,3.30
2019-04-11T04:31:38.671Z,3.30
2019-04-11T04:32:16.513Z,3.40
2019-04-11T04:32:56.579Z,3.40
2019-04-11T04:33:43.020Z,3.40
2019-04-11T04:34:21.830Z,3.40
2019-04-11T04:35:01.139Z,3.40
2019-04-11T04:35:40.139Z,3.40
2019-04-11T04:36:18.567Z,3.40
2019-04-11T04:36:57.735Z,3.40
2019-04-11T04:37:38.876Z,3.40
2019-04-11T04:38:18.789Z,3.40
2019-04-11T04:38:59.094Z,3.40
2019-04-11T04:39:38.996Z,3.40
2019-04-11T04:40:50.937Z,3.40
2019-04-11T04:41:26.797Z,3.50
2019-04-11T04:42:03.730Z,3.50
2019-04-11T04:42:42.862Z,3.50
2019-04-11T04:43:18.559Z,3.50
2019-04-11T04:43:57.549Z,3.50
2019-04-11T04:44:35.483Z,3.50
2019-04-11T04:45:14.678Z,3.40
2019-04-11T04:46:12.084Z,3.40
2019-04-11T04:46:51.820Z,3.30
2019-04-11T04:47:22.125Z,3.30
2019-04-11T04:48:02.658Z,3.20
2019-04-11T04:48:34.731Z,3.20
2019-04-11T04:49:13.231Z,3.10
2019-04-11T04:49:52.317Z,3.10
2019-04-11T04:50:30.920Z,3.00
2019-04-11T04:51:11.175Z,3.00
2019-04-11T04:51:47.844Z,3.00
2019-04-11T04:52:27.259Z,2.90
2019-04-11T04:53:05.347Z,2.90
2019-04-11T04:53:43.067Z,2.80
2019-04-11T04:54:23.956Z,2.80
2019-04-11T04:55:03.912Z,2.80
2019-04-11T04:55:43.677Z,2.80
2019-04-11T04:56:33.096Z,2.80
2019-04-11T04:57:13.171Z,2.80
2019-04-11T04:57:53.072Z,2.70
2019-04-11T04:58:31.687Z,2.70
2019-04-11T04:59:11.896Z,2.60
2019-04-11T04:59:49.801Z,2.60
2019-04-11T05:00:29.676Z,2.60
2019-04-11T05:01:07.182Z,2.60
2019-04-11T05:01:46.309Z,2.60
2019-04-11T05:02:24.165Z,2.60
2019-04-11T05:03:05.423Z,2.50
2019-04-11T05:03:44.538Z,2.50
2019-04-11T05:04:23.502Z,2.50
2019-04-11T05:05:03.828Z,2.50
2019-04-11T05:05:42.464Z,2.50
2019-04-11T05:06:20.818Z,2.50
2019-04-11T05:07:01.082Z,2.50
2019-04-11T05:07:40.855Z,2.50
2019-04-11T05:08:18.642Z,2.50
2019-04-11T05:08:57.927Z,2.50
2019-04-11T05:09:36.174Z,2.60
2019-04-11T05:10:15.343Z,2.60
2019-04-11T05:10:53.505Z,2.60
2019-04-11T05:11:31.507Z,2.60
2019-04-11T05:12:09.848Z,2.60
2019-04-11T05:12:48.007Z,2.60
2019-04-11T05:13:25.467Z,2.60
2019-04-11T05:14:04.920Z,2.60
2019-04-11T05:14:43.405Z,2.60
2019-04-11T05:15:21.325Z,2.60
2019-04-11T05:16:09.484Z,2.70
2019-04-11T05:16:38.440Z,2.70
2019-04-11T05:17:19.129Z,2.70
2019-04-11T05:17:57.688Z,2.70
2019-04-11T05:18:36.414Z,2.70
2019-04-11T05:19:14.925Z,2.70
2019-04-11T05:19:54.347Z,2.70
2019-04-11T05:20:32.297Z,2.80
2019-04-11T05:21:10.725Z,2.80
2019-04-11T05:21:49.827Z,2.70
2019-04-11T05:22:28.031Z,2.80
2019-04-11T05:23:06.351Z,2.80
2019-04-11T05:23:44.294Z,2.80
2019-04-11T05:24:22.886Z,2.80
2019-04-11T05:25:03.159Z,2.80
2019-04-11T05:25:40.445Z,2.80
2019-04-11T05:26:19.363Z,2.80
2019-04-11T05:26:57.923Z,2.90
2019-04-11T05:27:35.752Z,2.90
2019-04-11T05:28:14.004Z,2.90
2019-04-11T05:28:52.962Z,2.90
2019-04-11T05:29:30.850Z,3.00
2019-04-11T05:30:09.407Z,3.00
2019-04-11T05:30:47.379Z,3.00
2019-04-11T05:31:25.313Z,3.00
2019-04-11T05:32:05.178Z,3.10
2019-04-11T05:32:42.603Z,3.10
2019-04-11T05:33:21.183Z,3.10
2019-04-11T05:33:59.390Z,3.10
2019-04-11T05:34:39.390Z,3.00
2019-04-11T05:35:18.498Z,3.10
2019-04-11T05:35:56.429Z,3.10
2019-04-11T05:36:34.534Z,3.10
2019-04-11T05:37:13.187Z,3.10
2019-04-11T05:37:53.679Z,3.10
2019-04-11T05:38:34.406Z,3.10
2019-04-11T05:39:12.828Z,3.10
2019-04-11T05:39:52.537Z,3.20
2019-04-11T05:40:31.062Z,3.20
2019-04-11T05:41:12.101Z,3.20
2019-04-11T05:41:49.972Z,3.30
2019-04-11T05:42:29.255Z,3.30
2019-04-11T05:43:07.931Z,3.30
2019-04-11T05:43:47.341Z,3.30
2019-04-11T05:44:25.225Z,3.40
2019-04-11T05:45:03.259Z,3.40
2019-04-11T05:45:44.257Z,3.40
2019-04-11T05:46:31.337Z,3.40
2019-04-11T05:47:04.938Z,3.50
2019-04-11T05:47:42.066Z,3.50
2019-04-11T05:48:41.581Z,3.50
2019-04-11T05:49:24.782Z,3.50
2019-04-11T05:50:13.780Z,3.50
2019-04-11T05:50:52.964Z,3.60
2019-04-11T05:51:36.847Z,3.60
2019-04-11T05:52:13.815Z,3.60
2019-04-11T05:52:52.394Z,3.60
2019-04-11T05:53:32.838Z,3.60
2019-04-11T05:54:09.563Z,3.60
2019-04-11T05:54:55.354Z,3.60
2019-04-11T05:55:41.459Z,3.60
2019-04-11T05:56:18.793Z,3.60
2019-04-11T05:57:01.234Z,3.60
2019-04-11T05:57:42.946Z,3.60
2019-04-11T05:58:24.069Z,3.60
2019-04-11T05:59:21.580Z,3.60
2019-04-11T06:00:01.931Z,3.60
2019-04-11T06:00:53.308Z,3.60
2019-04-11T06:01:36.311Z,3.60
2019-04-11T06:02:21.386Z,3.60
2019-04-11T06:03:02.148Z,3.60
2019-04-11T06:03:49.188Z,3.60
2019-04-11T06:04:52.813Z,3.60
2019-04-11T06:05:36.050Z,3.60
2019-04-11T06:06:36.068Z,3.60
2019-04-11T06:07:29.292Z,3.60
2019-04-11T06:08:09.895Z,3.60
2019-04-11T06:08:48.292Z,3.70
2019-04-11T06:09:32.894Z,3.70
2019-04-11T06:10:14.671Z,3.70
2019-04-11T06:11:14.429Z,3.70
2019-04-11T06:11:56.055Z,3.80
2019-04-11T06:12:43.536Z,3.80
2019-04-11T06:13:29.141Z,3.80
2019-04-11T06:14:13.105Z,3.80
2019-04-11T06:15:05.974Z,3.80
2019-04-11T06:15:47.098Z,3.80
2019-04-11T06:16:36.111Z,3.90
2019-04-11T06:17:07.538Z,3.90
2019-04-11T06:17:46.188Z,3.90
2019-04-11T06:18:57.173Z,3.90
2019-04-11T06:19:53.572Z,3.90
2019-04-11T06:20:57.610Z,4.00
2019-04-11T06:21:40.770Z,4.00
2019-04-11T06:22:19.821Z,4.00
2019-04-11T06:23:11.010Z,4.10
2019-04-11T06:24:08.234Z,4.10
2019-04-11T06:25:18.910Z,4.20
2019-04-11T06:26:16.586Z,4.20
2019-04-11T06:27:11.148Z,4.20
2019-04-11T06:27:51.507Z,4.30
2019-04-11T06:28:30.907Z,4.30
2019-04-11T06:29:20.961Z,4.30
2019-04-11T06:30:10.348Z,4.40
2019-04-11T06:31:26.271Z,4.40
2019-04-11T06:32:15.927Z,4.50
2019-04-11T06:33:12.301Z,4.50
2019-04-11T06:33:57.234Z,4.60
2019-04-11T06:34:37.585Z,4.60
2019-04-11T06:35:21.966Z,4.60
2019-04-11T06:36:23.125Z,4.60
2019-04-11T06:37:19.987Z,4.70
2019-04-11T06:38:26.731Z,4.70
2019-04-11T06:39:23.797Z,4.80
2019-04-11T06:40:18.070Z,4.90
2019-04-11T06:41:03.536Z,4.90
2019-04-11T06:42:19.242Z,5.00
2019-04-11T06:43:28.431Z,5.00
2019-04-11T06:44:23.815Z,5.10
2019-04-11T06:45:17.565Z,5.10
2019-04-11T06:46:13.226Z,5.20
2019-04-11T06:47:06.776Z,5.20
2019-04-11T06:48:02.652Z,5.20
2019-04-11T06:49:04.467Z,5.20
2019-04-11T06:50:00.625Z,5.20
2019-04-11T06:51:06.075Z,5.30
2019-04-11T06:51:54.047Z,5.30
2019-04-11T06:52:35.472Z,5.40
2019-04-11T06:53:16.721Z,5.40
2019-04-11T06:54:12.697Z,5.40
2019-04-11T06:55:27.336Z,5.40
2019-04-11T06:56:16.837Z,5.40
2019-04-11T06:56:55.167Z,5.40
2019-04-11T06:57:34.101Z,5.30
2019-04-11T06:58:15.217Z,5.30
2019-04-11T06:58:56.726Z,5.30
2019-04-11T06:59:38.687Z,5.40
2019-04-11T07:00:17.065Z,5.40
2019-04-11T07:01:01.612Z,5.40
2019-04-11T07:01:40.547Z,5.40
2019-04-11T07:02:20.275Z,5.40
2019-04-11T07:02:59.489Z,5.40
2019-04-11T07:03:42.088Z,5.40
2019-04-11T07:04:25.721Z,5.40
2019-04-11T07:05:06.322Z,5.40
2019-04-11T07:05:44.914Z,5.40
2019-04-11T07:06:25.510Z,5.40
2019-04-11T07:07:04.780Z,5.30
2019-04-11T07:07:45.147Z,5.30
2019-04-11T07:08:26.291Z,5.20
2019-04-11T07:09:22.360Z,5.10
2019-04-11T07:10:02.294Z,5.10
2019-04-11T07:10:51.104Z,5.00
2019-04-11T07:11:38.425Z,5.00
2019-04-11T07:12:34.952Z,5.00
2019-04-11T07:13:26.986Z,5.00
2019-04-11T07:14:18.302Z,5.00
2019-04-11T07:15:06.639Z,5.00
2019-04-11T07:15:52.753Z,5.00
2019-04-11T07:16:34.045Z,4.90
2019-04-11T07:17:29.645Z,4.90
2019-04-11T07:18:39.858Z,4.90
2019-04-11T07:19:40.043Z,4.80
2019-04-11T07:20:52.306Z,4.90
2019-04-11T07:21:35.323Z,4.80
2019-04-11T07:22:32.674Z,4.80
2019-04-11T07:23:28.513Z,4.90
2019-04-11T07:24:37.418Z,4.90
2019-04-11T07:25:28.849Z,4.90
2019-04-11T07:26:19.120Z,4.90
2019-04-11T07:27:01.719Z,4.90
2019-04-11T07:27:57.203Z,4.90
2019-04-11T07:28:57.241Z,5.00
2019-04-11T07:29:51.372Z,5.10
2019-04-11T07:30:47.361Z,5.10
2019-04-11T07:31:50.410Z,5.20
2019-04-11T07:32:29.887Z,5.30
2019-04-11T07:33:26.927Z,5.20
2019-04-11T07:34:35.442Z,5.30
2019-04-11T07:35:29.665Z,5.30
2019-04-11T07:36:25.262Z,5.30
2019-04-11T07:37:40.639Z,5.30
2019-04-11T07:38:24.596Z,5.30
2019-04-11T07:39:12.697Z,5.40
2019-04-11T07:40:07.548Z,5.40
2019-04-11T07:41:01.483Z,5.40
2019-04-11T07:41:58.000Z,5.50
2019-04-11T07:43:11.537Z,5.50
2019-04-11T07:43:47.725Z,5.50
2019-04-11T07:44:27.563Z,5.50
2019-04-11T07:45:06.645Z,5.50
2019-04-11T07:46:02.749Z,5.50
2019-04-11T07:46:53.617Z,5.50
2019-04-11T07:47:38.911Z,5.50
2019-04-11T07:48:22.635Z,5.50
2019-04-11T07:49:06.105Z,5.40
2019-04-11T07:49:44.863Z,5.40
2019-04-11T07:50:23.155Z,5.40
2019-04-11T07:51:15.586Z,5.40
2019-04-11T07:52:00.549Z,5.40
2019-04-11T07:52:46.856Z,5.40
2019-04-11T07:53:26.257Z,5.40
2019-04-11T07:54:05.360Z,5.40
2019-04-11T07:54:43.433Z,5.40
2019-04-11T07:55:24.104Z,5.40
2019-04-11T07:56:04.015Z,5.50
2019-04-11T07:57:01.738Z,5.50
2019-04-11T07:57:48.966Z,5.60
2019-04-11T07:58:30.882Z,5.60
2019-04-11T07:59:15.348Z,5.60
2019-04-11T08:00:19.264Z,5.60
2019-04-11T08:01:16.870Z,5.60
2019-04-11T08:02:12.461Z,5.60
2019-04-11T08:03:08.092Z,5.60
2019-04-11T08:04:06.268Z,5.70
2019-04-11T08:05:02.372Z,5.70
2019-04-11T08:06:01.579Z,5.80
2019-04-11T08:07:13.671Z,5.90
2019-04-11T08:08:04.803Z,5.90
2019-04-11T08:09:07.136Z,5.80
2019-04-11T08:09:57.187Z,5.80
2019-04-11T08:10:39.432Z,5.80
2019-04-11T08:11:27.502Z,5.70
2019-04-11T08:12:27.505Z,5.70
2019-04-11T08:13:10.192Z,5.70
2019-04-11T08:14:06.535Z,5.60
2019-04-11T08:14:59.573Z,5.70
2019-04-11T08:16:08.607Z,5.70
2019-04-11T08:17:04.909Z,5.80
2019-04-11T08:17:46.021Z,5.80
2019-04-11T08:18:45.900Z,5.90
2019-04-11T08:19:42.887Z,5.90
2019-04-11T08:20:38.017Z,6.00
2019-04-11T08:21:35.475Z,5.90
2019-04-11T08:22:30.835Z,5.80
2019-04-11T08:23:09.763Z,5.70
2019-04-11T08:23:49.921Z,5.70
2019-04-11T08:24:34.463Z,5.70
2019-04-11T08:25:47.394Z,5.70
2019-04-11T08:27:02.718Z,5.60
2019-04-11T08:27:54.942Z,5.60
2019-04-11T08:28:27.010Z,5.60
2019-04-11T08:29:10.614Z,5.60
2019-04-11T08:29:47.277Z,5.70
2019-04-11T08:30:28.141Z,5.70
2019-04-11T08:31:16.141Z,5.70
2019-04-11T08:32:29.768Z,5.70
2019-04-11T08:33:08.018Z,5.80
2019-04-11T08:33:46.733Z,5.80
2019-04-11T08:34:25.197Z,5.80
2019-04-11T08:35:12.210Z,5.80
2019-04-11T08:36:01.784Z,5.80
2019-04-11T08:37:07.446Z,5.70
2019-04-11T08:38:02.704Z,5.60
2019-04-11T08:38:40.919Z,5.50
2019-04-11T08:39:29.076Z,5.20
2019-04-11T08:40:07.949Z,5.00
2019-04-11T08:41:03.520Z,4.80
2019-04-11T08:41:55.453Z,4.60
2019-04-11T08:42:51.010Z,4.40
2019-04-11T08:43:31.148Z,4.20
2019-04-11T08:44:17.429Z,4.10
2019-04-11T08:44:54.721Z,4.00
2019-04-11T08:45:33.928Z,4.00
2019-04-11T08:46:35.092Z,4.00
2019-04-11T08:47:13.535Z,4.00
2019-04-11T08:47:55.660Z,4.00
2019-04-11T08:48:33.060Z,4.10
2019-04-11T08:49:19.669Z,4.10
2019-04-11T08:49:58.789Z,4.20
2019-04-11T08:50:39.339Z,4.30
2019-04-11T08:51:17.006Z,4.30
2019-04-11T08:51:55.743Z,4.40
2019-04-11T08:53:02.598Z,4.40
2019-04-11T08:54:09.032Z,4.50
2019-04-11T08:55:02.531Z,4.50
2019-04-11T08:55:55.334Z,4.60
2019-04-11T08:56:31.334Z,4.60
2019-04-11T08:57:10.084Z,4.60
2019-04-11T08:57:51.888Z,4.70
2019-04-11T08:58:36.833Z,4.70
2019-04-11T08:59:33.682Z,4.70
2019-04-11T09:00:24.033Z,4.80
2019-04-11T09:01:03.413Z,4.80
2019-04-11T09:01:42.415Z,4.90
2019-04-11T09:02:24.831Z,4.90
2019-04-11T09:03:07.787Z,4.90
2019-04-11T09:04:10.427Z,4.90
2019-04-11T09:05:14.676Z,5.00
2019-04-11T09:06:08.464Z,5.00
2019-04-11T09:06:47.745Z,5.10
2019-04-11T09:07:30.286Z,5.10
2019-04-11T09:08:35.901Z,5.20
2019-04-11T09:09:41.681Z,5.20
2019-04-11T09:10:37.029Z,5.30
2019-04-11T09:11:38.986Z,5.40
2019-04-11T09:12:15.629Z,5.50
2019-04-11T09:13:07.056Z,5.60
2019-04-11T09:14:06.139Z,5.60
2019-04-11T09:15:09.329Z,5.70
2019-04-11T09:16:05.538Z,5.70
2019-04-11T09:16:52.094Z,5.80
2019-04-11T09:17:36.678Z,5.80
2019-04-11T09:18:15.347Z,5.80
2019-04-11T09:18:54.465Z,5.80
2019-04-11T09:19:49.322Z,5.80
2019-04-11T09:20:58.069Z,5.70
2019-04-11T09:21:53.589Z,5.60
2019-04-11T09:22:35.254Z,5.50
2019-04-11T09:23:19.748Z,5.50
2019-04-11T09:23:57.780Z,5.50
2019-04-11T09:24:51.655Z,5.50
2019-04-11T09:25:50.482Z,5.60
2019-04-11T09:27:04.495Z,5.60
2019-04-11T09:28:00.770Z,5.70
2019-04-11T09:28:44.084Z,5.80
2019-04-11T09:29:24.092Z,5.80
2019-04-11T09:30:04.584Z,5.80
2019-04-11T09:30:59.801Z,5.80
2019-04-11T09:31:55.946Z,5.80
2019-04-11T09:33:04.714Z,5.90
2019-04-11T09:34:01.652Z,5.80
2019-04-11T09:34:46.050Z,5.80
2019-04-11T09:35:28.454Z,5.80
2019-04-11T09:36:26.069Z,5.80
2019-04-11T09:37:42.896Z,5.80
2019-04-11T09:38:22.159Z,5.80
2019-04-11T09:39:00.593Z,5.80
2019-04-11T09:40:09.893Z,5.80
2019-04-11T09:40:54.344Z,5.80
2019-04-11T09:41:52.897Z,5.80
2019-04-11T09:42:47.021Z,5.80